Time;durP1;ratioP1;P1;durP2;ratioP2;P2;SDS_P1;SDS_P2;PMS_P1;PMS_P2;Temp;Humidity;BMP_temperature;BMP_pressure;BME280_temperature;BME280_humidity;BME280_pressure;Samples;Min_cycle;Max_cycle;Signal;HPM_P1;HPM_P2
2022/10/17 00:00:30;;;;;;;4.13;1.10;;;16.80;72.00;;;;;;4993199;28;20034;-76
2022/10/17 00:02:57;;;;;;;3.55;1.45;;;16.80;72.00;;;;;;4996452;28;20685;-78
2022/10/17 00:05:23;;;;;;;2.42;1.02;;;16.80;72.10;;;;;;4987541;28;20042;-78
2022/10/17 00:07:50;;;;;;;3.33;1.10;;;16.80;72.10;;;;;;4989632;28;20050;-77
2022/10/17 00:10:17;;;;;;;2.55;1.00;;;16.80;72.10;;;;;;4998914;28;20309;-77
2022/10/17 00:12:44;;;;;;;1.85;0.85;;;16.80;72.10;;;;;;5000540;28;20038;-77
2022/10/17 00:15:15;;;;;;;4.75;1.55;;;16.80;72.10;;;;;;4994295;28;20416;-78
2022/10/17 00:17:41;;;;;;;1.83;1.10;;;16.80;72.10;;;;;;4989417;28;20104;-79
2022/10/17 00:20:07;;;;;;;3.00;1.20;;;16.80;72.10;;;;;;4989467;28;20034;-78
2022/10/17 00:22:34;;;;;;;3.92;1.10;;;16.80;72.10;;;;;;4994501;28;20052;-77
2022/10/17 00:25:00;;;;;;;3.08;1.05;;;16.80;72.20;;;;;;4992142;28;20023;-78
2022/10/17 00:27:26;;;;;;;2.15;0.82;;;16.80;72.30;;;;;;4988505;28;20077;-78
2022/10/17 00:29:52;;;;;;;3.03;0.88;;;16.80;72.20;;;;;;4994995;28;20029;-77
2022/10/17 00:32:20;;;;;;;2.60;1.50;;;16.80;72.30;;;;;;4981126;28;20031;-77
2022/10/17 00:34:46;;;;;;;4.22;1.00;;;16.80;72.30;;;;;;4996153;28;20092;-77
2022/10/17 00:37:12;;;;;;;4.28;1.63;;;16.80;72.30;;;;;;4983524;28;20166;-77
2022/10/17 00:39:38;;;;;;;5.05;1.92;;;16.80;72.30;;;;;;4993202;28;20030;-79
2022/10/17 00:42:04;;;;;;;5.10;1.70;;;16.80;72.30;;;;;;5010617;28;20133;-78
2022/10/17 00:44:30;;;;;;;3.10;1.00;;;16.80;72.30;;;;;;4993916;28;20031;-77
2022/10/17 00:46:58;;;;;;;2.28;1.15;;;16.80;72.40;;;;;;4993677;28;20042;-78
2022/10/17 00:49:27;;;;;;;5.10;1.33;;;16.80;72.40;;;;;;4991183;28;20023;-77
2022/10/17 00:52:14;;;;;;;3.05;1.25;;;16.80;72.40;;;;;;4983100;28;20045;-77
2022/10/17 00:54:45;;;;;;;4.72;1.00;;;16.80;72.40;;;;;;5003514;28;20026;-77
2022/10/17 00:57:12;;;;;;;2.33;0.80;;;16.80;72.40;;;;;;4994892;28;20042;-77
2022/10/17 00:59:40;;;;;;;3.90;0.80;;;16.80;72.40;;;;;;4994866;28;20014;-78
2022/10/17 01:02:12;;;;;;;3.95;0.90;;;16.80;72.40;;;;;;4992868;28;20045;-78
2022/10/17 01:04:40;;;;;;;3.78;0.90;;;16.80;72.50;;;;;;4994156;28;20044;-78
2022/10/17 01:07:07;;;;;;;6.53;1.30;;;16.90;72.70;;;;;;4994634;28;20035;-78
2022/10/17 01:09:34;;;;;;;5.35;1.95;;;16.80;72.60;;;;;;4979250;28;20801;-78
2022/10/17 01:12:18;;;;;;;5.15;1.92;;;16.90;72.70;;;;;;4974646;28;20042;-78
2022/10/17 01:15:12;;;;;;;3.80;1.20;;;16.90;72.70;;;;;;4995820;28;20121;-78
2022/10/17 01:17:44;;;;;;;3.70;1.00;;;16.90;72.80;;;;;;4993614;28;20028;-77
2022/10/17 01:20:13;;;;;;;4.03;2.15;;;16.90;73.30;;;;;;4991504;28;20541;-77
2022/10/17 01:22:47;;;;;;;3.80;1.13;;;16.80;72.60;;;;;;4989865;28;20397;-77
2022/10/17 01:25:41;;;;;;;4.43;1.25;;;16.80;72.60;;;;;;5009447;28;20030;-77
2022/10/17 01:28:32;;;;;;;3.33;1.00;;;16.90;73.00;;;;;;4991399;28;20034;-79
2022/10/17 01:31:13;;;;;;;4.65;1.65;;;16.90;72.90;;;;;;4991981;28;20034;-79
2022/10/17 01:33:52;;;;;;;6.13;1.50;;;16.80;72.80;;;;;;4992140;28;20030;-78
2022/10/17 01:36:34;;;;;;;7.60;1.38;;;16.90;72.90;;;;;;4983814;28;20046;-79
2022/10/17 01:39:13;;;;;;;9.35;1.55;;;16.80;72.90;;;;;;4975344;28;20077;-75
2022/10/17 01:42:29;;;;;;;6.10;1.25;;;16.80;72.90;;;;;;4997388;28;20030;-78
2022/10/17 01:45:03;;;;;;;6.25;1.45;;;16.80;73.00;;;;;;4992815;28;20505;-78
2022/10/17 01:47:32;;;;;;;6.90;1.50;;;16.80;72.90;;;;;;4975721;28;20039;-79
2022/10/17 01:50:12;;;;;;;5.82;1.40;;;16.80;73.00;;;;;;4972339;28;20043;-80
2022/10/17 01:52:50;;;;;;;3.83;1.30;;;16.80;73.10;;;;;;4991989;28;20113;-79
2022/10/17 01:55:23;;;;;;;4.78;1.67;;;16.80;73.10;;;;;;4995575;28;20214;-78
2022/10/17 01:57:51;;;;;;;4.03;1.20;;;16.80;73.10;;;;;;4996887;28;20038;-78
2022/10/17 02:00:23;;;;;;;11.23;2.67;;;16.80;73.10;;;;;;4978034;28;20033;-78
2022/10/17 02:02:57;;;;;;;5.28;1.17;;;16.80;73.20;;;;;;4975342;28;20048;-77
2022/10/17 02:05:27;;;;;;;4.38;1.45;;;16.80;73.30;;;;;;4991698;28;20029;-78
2022/10/17 02:07:53;;;;;;;7.13;2.25;;;16.90;73.40;;;;;;4983874;28;20042;-77
2022/10/17 02:10:34;;;;;;;7.20;2.88;;;16.90;73.40;;;;;;4992930;28;20034;-78
2022/10/17 02:13:04;;;;;;;3.42;1.35;;;16.80;73.30;;;;;;4991980;28;20026;-78
2022/10/17 02:15:52;;;;;;;6.22;1.60;;;16.90;73.50;;;;;;4987726;28;20041;-78
2022/10/17 02:19:00;;;;;;;4.72;1.55;;;16.90;73.60;;;;;;4975834;28;20043;-79
2022/10/17 02:22:08;;;;;;;7.25;1.63;;;16.90;73.60;;;;;;4986373;28;20027;-78
2022/10/17 02:24:42;;;;;;;8.02;2.40;;;16.90;73.50;;;;;;4936453;29;20097;-78
2022/10/17 02:27:34;;;;;;;4.35;1.20;;;16.90;73.50;;;;;;4952923;28;20035;-78
2022/10/17 02:30:09;;;;;;;4.00;1.00;;;16.80;73.40;;;;;;4982699;28;20494;-78
2022/10/17 02:32:52;;;;;;;5.72;1.73;;;16.80;73.50;;;;;;5008436;28;20030;-78
2022/10/17 02:35:21;;;;;;;6.88;2.22;;;16.80;73.50;;;;;;4997768;28;20095;-78
2022/10/17 02:37:49;;;;;;;8.40;2.03;;;16.80;73.50;;;;;;4998982;28;20034;-80
2022/10/17 02:40:19;;;;;;;5.55;2.03;;;16.80;73.60;;;;;;4983229;28;20121;-79
2022/10/17 02:42:46;;;;;;;6.57;2.30;;;16.80;73.70;;;;;;4994000;28;20125;-77
2022/10/17 02:45:15;;;;;;;4.50;1.33;;;16.80;73.70;;;;;;4993725;28;20024;-78
2022/10/17 02:47:55;;;;;;;6.47;2.08;;;16.80;73.80;;;;;;4976008;28;20052;-77
2022/10/17 02:50:45;;;;;;;4.90;1.67;;;16.80;73.80;;;;;;4974897;28;20061;-78
2022/10/17 02:53:22;;;;;;;6.43;1.52;;;16.80;73.90;;;;;;4983598;28;20077;-79
2022/10/17 02:55:57;;;;;;;3.50;1.30;;;16.80;73.90;;;;;;4979105;28;20028;-78
2022/10/17 02:58:29;;;;;;;5.85;1.42;;;16.80;73.90;;;;;;4993532;28;20121;-78
2022/10/17 03:00:56;;;;;;;4.75;1.27;;;16.70;73.80;;;;;;4985136;28;20824;-77
2022/10/17 03:03:29;;;;;;;9.05;2.65;;;16.70;73.80;;;;;;4991341;28;20034;-78
2022/10/17 03:05:59;;;;;;;9.02;2.15;;;16.80;74.00;;;;;;4976460;28;20064;-78
2022/10/17 03:08:26;;;;;;;7.47;1.38;;;16.70;73.90;;;;;;4993428;28;20042;-78
2022/10/17 03:10:55;;;;;;;6.55;1.92;;;16.70;73.90;;;;;;4991576;28;20045;-78
2022/10/17 03:13:21;;;;;;;5.72;1.50;;;16.70;74.00;;;;;;4960425;28;20030;-78
2022/10/17 03:15:47;;;;;;;6.68;1.55;;;16.70;74.00;;;;;;4992727;28;20034;-78
2022/10/17 03:18:13;;;;;;;4.78;1.73;;;16.70;74.00;;;;;;4974862;28;20049;-79
2022/10/17 03:20:39;;;;;;;4.95;1.77;;;16.70;74.00;;;;;;4991017;28;20022;-77
2022/10/17 03:23:06;;;;;;;6.07;2.15;;;16.70;74.00;;;;;;5005547;28;20048;-78
2022/10/17 03:25:32;;;;;;;5.20;1.42;;;16.70;74.00;;;;;;4994463;28;20026;-78
2022/10/17 03:28:01;;;;;;;5.40;1.38;;;16.70;74.00;;;;;;4995201;28;20050;-78
2022/10/17 03:30:29;;;;;;;5.97;1.90;;;16.70;74.00;;;;;;4997235;28;20034;-79
2022/10/17 03:32:57;;;;;;;6.38;1.50;;;16.70;74.00;;;;;;4991211;28;20620;-78
2022/10/17 03:35:24;;;;;;;5.68;1.35;;;16.70;74.10;;;;;;4998261;28;20102;-78
2022/10/17 03:37:50;;;;;;;2.65;1.17;;;16.70;74.00;;;;;;4997411;28;20046;-78
2022/10/17 03:40:18;;;;;;;5.45;1.55;;;16.70;74.00;;;;;;4984577;28;20320;-79
2022/10/17 03:42:45;;;;;;;4.88;1.50;;;16.70;74.00;;;;;;4998482;28;20046;-79
2022/10/17 03:45:11;;;;;;;5.90;1.13;;;16.70;74.00;;;;;;5002802;28;20498;-79
2022/10/17 03:47:37;;;;;;;4.43;1.50;;;16.60;73.80;;;;;;4995889;28;20034;-78
2022/10/17 03:50:03;;;;;;;4.75;1.15;;;16.60;73.80;;;;;;4992834;28;20043;-79
2022/10/17 03:52:33;;;;;;;2.70;1.15;;;16.60;73.80;;;;;;5002115;28;20034;-79
2022/10/17 03:55:00;;;;;;;6.40;1.60;;;16.60;73.80;;;;;;4974091;28;20395;-78
2022/10/17 03:57:26;;;;;;;4.22;1.65;;;16.60;73.90;;;;;;5010358;28;20043;-78
2022/10/17 03:59:53;;;;;;;5.65;2.08;;;16.50;73.70;;;;;;4994380;28;20031;-79
2022/10/17 04:02:21;;;;;;;5.65;1.30;;;16.50;73.80;;;;;;4993505;28;20034;-76
2022/10/17 04:04:49;;;;;;;6.03;2.08;;;16.50;73.80;;;;;;4974924;28;20034;-79
2022/10/17 04:07:15;;;;;;;10.85;3.53;;;16.50;73.90;;;;;;4996716;28;20038;-79
2022/10/17 04:09:45;;;;;;;8.70;1.85;;;16.50;73.80;;;;;;4975228;28;20047;-78
2022/10/17 04:12:16;;;;;;;7.95;2.00;;;16.40;73.70;;;;;;4994763;28;20033;-80
2022/10/17 04:14:45;;;;;;;4.90;1.52;;;16.40;73.70;;;;;;4992495;28;20026;-78
2022/10/17 04:17:10;;;;;;;8.80;1.70;;;16.30;73.50;;;;;;4962561;28;20161;-79
2022/10/17 04:19:38;;;;;;;2.25;0.82;;;16.40;74.30;;;;;;4988210;28;20030;-79
2022/10/17 04:22:07;;;;;;;3.20;1.20;;;16.40;73.80;;;;;;4962610;28;20081;-78
2022/10/17 04:24:35;;;;;;;6.65;2.47;;;16.30;73.60;;;;;;4995585;28;20038;-78
2022/10/17 04:27:07;;;;;;;5.32;1.90;;;16.30;73.60;;;;;;4979796;28;20038;-77
2022/10/17 04:29:37;;;;;;;7.20;1.40;;;16.30;73.60;;;;;;5001775;28;20033;-78
2022/10/17 04:32:09;;;;;;;5.93;1.13;;;16.20;73.50;;;;;;4990725;28;20034;-78
2022/10/17 04:34:42;;;;;;;7.88;2.33;;;16.20;73.50;;;;;;4976323;28;20022;-79
2022/10/17 04:37:08;;;;;;;5.40;1.20;;;16.20;73.50;;;;;;4995078;28;20030;-78
2022/10/17 04:39:35;;;;;;;11.57;2.58;;;16.10;73.40;;;;;;5010138;28;20038;-79
2022/10/17 04:42:02;;;;;;;7.22;1.50;;;16.10;73.40;;;;;;4994625;28;20038;-77
2022/10/17 04:44:32;;;;;;;5.35;1.45;;;16.10;73.50;;;;;;4995202;28;20037;-79
2022/10/17 04:46:58;;;;;;;6.07;1.85;;;16.10;73.50;;;;;;4991644;28;20064;-78
2022/10/17 04:49:24;;;;;;;8.27;2.25;;;16.10;73.50;;;;;;4988061;28;20045;-77
2022/10/17 04:51:53;;;;;;;10.07;2.05;;;16.00;73.40;;;;;;4996877;28;20108;-79
2022/10/17 04:54:38;;;;;;;6.38;1.63;;;16.00;73.40;;;;;;4992551;28;20108;-79
2022/10/17 04:57:08;;;;;;;5.32;1.35;;;16.00;73.50;;;;;;4987974;28;20019;-79
2022/10/17 04:59:34;;;;;;;6.43;1.60;;;15.90;73.40;;;;;;5002141;28;20030;-78
2022/10/17 05:02:20;;;;;;;3.78;1.15;;;15.90;73.40;;;;;;4990383;28;20062;-79
2022/10/17 05:04:46;;;;;;;5.38;1.55;;;15.80;73.30;;;;;;4997437;28;20033;-78
2022/10/17 05:07:13;;;;;;;6.72;1.60;;;15.80;73.30;;;;;;4993075;28;20095;-79
2022/10/17 05:09:39;;;;;;;5.07;1.20;;;15.80;73.30;;;;;;4995025;28;20492;-77
2022/10/17 05:12:05;;;;;;;7.25;1.80;;;15.80;73.40;;;;;;4994897;28;20165;-77
2022/10/17 05:14:31;;;;;;;7.95;1.45;;;15.70;73.20;;;;;;4976049;28;20038;-78
2022/10/17 05:16:57;;;;;;;6.70;1.88;;;15.70;73.30;;;;;;4993804;28;20489;-78
2022/10/17 05:19:24;;;;;;;7.60;1.63;;;15.70;73.30;;;;;;4943422;28;20042;-78
2022/10/17 05:21:50;;;;;;;5.32;1.50;;;15.70;73.30;;;;;;4985862;28;20061;-79
2022/10/17 05:24:17;;;;;;;5.80;1.50;;;15.70;73.40;;;;;;4989840;28;20319;-82
2022/10/17 05:26:43;;;;;;;5.82;1.73;;;15.70;73.40;;;;;;4974697;28;20038;-81
2022/10/17 05:29:09;;;;;;;8.65;1.80;;;15.60;73.20;;;;;;4963794;28;20414;-84
2022/10/17 05:31:40;;;;;;;4.47;1.77;;;15.60;73.30;;;;;;4972364;28;20031;-80
2022/10/17 05:34:07;;;;;;;6.25;1.25;;;15.60;73.30;;;;;;4972909;28;20692;-83
2022/10/17 05:36:34;;;;;;;7.20;1.60;;;15.60;73.30;;;;;;4975683;28;20505;-82
2022/10/17 05:39:03;;;;;;;8.63;1.42;;;15.50;73.20;;;;;;5010246;28;20061;-83
2022/10/17 05:41:32;;;;;;;5.38;1.40;;;15.50;73.20;;;;;;5006734;28;20065;-83
2022/10/17 05:43:59;;;;;;;5.57;1.27;;;15.50;73.20;;;;;;5016827;28;20053;-81
2022/10/17 05:46:38;;;;;;;8.25;2.42;;;15.50;73.20;;;;;;4993562;28;20058;-82
2022/10/17 05:49:04;;;;;;;6.78;1.55;;;15.50;73.20;;;;;;5001195;28;20057;-81
2022/10/17 05:51:33;;;;;;;6.43;1.73;;;15.50;73.30;;;;;;4992196;28;20069;-83
2022/10/17 05:54:01;;;;;;;8.90;2.53;;;15.50;73.30;;;;;;5012573;28;20048;-84
2022/10/17 05:56:28;;;;;;;8.95;2.47;;;15.40;73.20;;;;;;5015642;28;20045;-89
2022/10/17 05:58:54;;;;;;;10.50;3.30;;;15.40;73.40;;;;;;5002909;28;20030;-81
2022/10/17 06:01:43;;;;;;;9.57;2.50;;;15.50;73.90;;;;;;4988576;28;20038;-83
2022/10/17 06:04:10;;;;;;;12.13;2.58;;;15.40;73.90;;;;;;4991049;28;20520;-81
2022/10/17 06:06:38;;;;;;;9.32;2.53;;;15.50;74.50;;;;;;4974703;28;20034;-81
2022/10/17 06:09:05;;;;;;;10.40;2.63;;;15.50;74.90;;;;;;4971873;28;20340;-81
2022/10/17 06:11:36;;;;;;;8.43;2.50;;;15.50;75.10;;;;;;4987661;28;20037;-87
2022/10/17 06:14:03;;;;;;;8.45;1.60;;;15.60;75.40;;;;;;4988546;28;20030;-81
2022/10/17 06:16:31;;;;;;;6.78;1.60;;;15.60;75.40;;;;;;4987978;28;20510;-79
2022/10/17 06:18:57;;;;;;;7.82;1.90;;;15.60;75.30;;;;;;4991045;28;20089;-80
2022/10/17 06:21:27;;;;;;;9.45;2.28;;;15.60;75.30;;;;;;4986920;28;20030;-79
2022/10/17 06:24:05;;;;;;;10.73;1.77;;;15.50;75.10;;;;;;4978627;28;20026;-80
2022/10/17 06:26:34;;;;;;;7.82;2.30;;;15.50;75.10;;;;;;4972709;28;20034;-80
2022/10/17 06:29:01;;;;;;;12.82;2.00;;;15.40;75.00;;;;;;4993634;28;20667;-80
2022/10/17 06:31:33;;;;;;;;;;;15.40;75.00;;;;;;4985457;28;20026;-79
2022/10/17 06:34:04;;;;;;;7.20;1.48;;;15.40;75.00;;;;;;4987768;28;19910;-90
2022/10/17 06:36:30;;;;;;;13.55;2.55;;;15.30;74.70;;;;;;4988419;28;20043;-86
2022/10/17 06:38:56;;;;;;;10.07;2.08;;;15.30;74.80;;;;;;4995678;28;20041;-80
2022/10/17 06:41:29;;;;;;;8.02;1.80;;;15.30;74.80;;;;;;4987985;28;20019;-80
2022/10/17 06:44:08;;;;;;;6.82;1.70;;;15.20;74.60;;;;;;4985864;28;20096;-79
2022/10/17 06:46:48;;;;;;;7.00;1.85;;;15.20;74.60;;;;;;4989324;28;20502;-79
2022/10/17 06:49:19;;;;;;;8.48;2.35;;;15.20;74.60;;;;;;4983724;28;20046;-79
2022/10/17 06:51:51;;;;;;;8.85;2.30;;;15.20;74.60;;;;;;4979980;28;20086;-80
2022/10/17 06:54:21;;;;;;;6.10;1.52;;;15.20;74.50;;;;;;5004385;28;20030;-80
2022/10/17 06:57:02;;;;;;;7.47;2.08;;;15.20;74.50;;;;;;4988556;28;20042;-81
2022/10/17 06:59:53;;;;;;;7.00;1.90;;;15.20;74.50;;;;;;4977905;28;20038;-80
2022/10/17 07:02:24;;;;;;;9.05;1.58;;;15.20;74.40;;;;;;4982513;28;20043;-81
2022/10/17 07:04:50;;;;;;;6.32;1.48;;;15.20;74.30;;;;;;4958607;28;20039;-80
2022/10/17 07:07:19;;;;;;;14.65;2.47;;;15.20;74.20;;;;;;4986954;28;20049;-81
2022/10/17 07:09:45;;;;;;;5.50;1.85;;;15.20;74.20;;;;;;4955102;28;20444;-82
2022/10/17 07:12:11;;;;;;;10.25;3.88;;;15.20;74.10;;;;;;4995061;28;20441;-82
2022/10/17 07:14:41;;;;;;;9.88;2.90;;;15.20;74.00;;;;;;4970951;28;20049;-83
2022/10/17 07:17:09;;;;;;;10.85;2.28;;;15.20;74.10;;;;;;4987978;28;20406;-83
2022/10/17 07:19:35;;;;;;;10.77;2.50;;;15.30;74.50;;;;;;4996684;28;20046;-82
2022/10/17 07:22:02;;;;;;;12.07;3.35;;;15.30;74.70;;;;;;4954781;28;20092;-82
2022/10/17 07:24:29;;;;;;;11.52;2.10;;;15.40;75.00;;;;;;4986550;28;20045;-80
2022/10/17 07:27:14;;;;;;;21.00;3.25;;;15.50;75.20;;;;;;4987029;28;20514;-81
2022/10/17 07:29:40;;;;;;;9.52;3.00;;;15.50;75.10;;;;;;4978040;28;20202;-82
2022/10/17 07:32:24;;;;;;;8.80;2.03;;;15.60;75.30;;;;;;4981562;28;20022;-82
2022/10/17 07:34:51;;;;;;;11.02;2.03;;;15.70;75.40;;;;;;4987306;28;20104;-81
2022/10/17 07:37:17;;;;;;;14.32;3.42;;;15.70;75.30;;;;;;4971998;28;20475;-89
2022/10/17 07:39:51;;;;;;;12.95;2.60;;;15.80;75.50;;;;;;4978129;28;20111;-86
2022/10/17 07:42:20;;;;;;;10.07;1.85;;;15.90;75.50;;;;;;4994702;28;20045;-86
2022/10/17 07:44:50;;;;;;;9.50;2.10;;;15.90;75.50;;;;;;4976195;28;20042;-84
2022/10/17 07:47:16;;;;;;;14.43;3.78;;;16.00;75.60;;;;;;4993236;28;20046;-89
2022/10/17 07:49:44;;;;;;;13.15;3.17;;;16.00;75.60;;;;;;4995118;28;20596;-92
2022/10/17 07:52:12;;;;;;;8.90;2.38;;;16.00;75.50;;;;;;4997471;28;20082;-93
2022/10/17 07:54:38;;;;;;;10.40;2.45;;;16.10;75.60;;;;;;4984456;28;20054;-83
2022/10/17 07:57:04;;;;;;;9.98;2.53;;;16.10;75.60;;;;;;4995161;28;20126;-81
2022/10/17 07:59:32;;;;;;;10.25;2.33;;;16.10;75.50;;;;;;4989346;28;20026;-82
2022/10/17 08:01:59;;;;;;;12.20;2.65;;;16.20;75.70;;;;;;4988292;28;20035;-84
2022/10/17 08:04:25;;;;;;;12.57;3.08;;;16.20;76.20;;;;;;4985034;28;20042;-83
2022/10/17 08:06:51;;;;;;;16.38;3.55;;;16.20;75.60;;;;;;4989232;28;20040;-84
2022/10/17 08:09:19;;;;;;;12.45;2.80;;;16.20;75.50;;;;;;4987623;28;20403;-87
2022/10/17 08:11:45;;;;;;;14.10;3.40;;;16.20;75.50;;;;;;4989060;28;20035;-82
2022/10/17 08:14:12;;;;;;;18.10;4.20;;;16.20;75.60;;;;;;4987327;28;20035;-78
2022/10/17 08:16:39;;;;;;;11.13;2.47;;;16.20;75.60;;;;;;4991910;28;20026;-82
2022/10/17 08:19:07;;;;;;;13.02;2.50;;;16.30;76.20;;;;;;4994999;28;20425;-87
2022/10/17 08:21:35;;;;;;;11.25;2.38;;;16.30;75.80;;;;;;4960398;28;20509;-84
2022/10/17 08:24:01;;;;;;;9.95;2.53;;;16.30;75.70;;;;;;5011582;28;20046;-87
2022/10/17 08:26:28;;;;;;;8.95;2.35;;;16.30;75.70;;;;;;4996608;28;20204;-90
2022/10/17 08:28:55;;;;;;;9.93;2.83;;;16.40;75.80;;;;;;5002499;28;20053;-88
2022/10/17 08:31:21;;;;;;;9.25;2.15;;;16.40;75.80;;;;;;5001699;28;20425;-86
2022/10/17 08:33:49;;;;;;;9.98;2.97;;;16.40;75.70;;;;;;4993424;28;20053;-84
2022/10/17 08:36:18;;;;;;;13.50;1.98;;;16.50;75.80;;;;;;4996616;28;20026;-85
2022/10/17 08:38:45;;;;;;;11.85;2.50;;;16.60;75.80;;;;;;5003572;28;20034;-85
2022/10/17 08:41:48;;;;;;;15.93;4.43;;;16.60;75.70;;;;;;4996618;28;20041;-82
2022/10/17 08:44:20;;;;;;;15.27;3.25;;;16.60;75.60;;;;;;4996120;28;20034;-83
2022/10/17 08:46:51;;;;;;;11.40;2.60;;;16.70;75.60;;;;;;4986708;28;20211;-85
2022/10/17 08:49:45;;;;;;;12.05;2.90;;;16.70;76.00;;;;;;4994605;28;20038;-83
2022/10/17 08:52:45;;;;;;;8.88;2.35;;;16.80;75.50;;;;;;4987341;28;20060;-82
2022/10/17 08:55:26;;;;;;;8.23;3.00;;;16.80;75.30;;;;;;4989427;28;20398;-83
2022/10/17 08:57:52;;;;;;;11.65;2.83;;;16.80;75.20;;;;;;4984158;28;20019;-83
2022/10/17 09:00:20;;;;;;;7.80;2.80;;;16.90;75.30;;;;;;4987880;28;20036;-85
2022/10/17 09:02:46;;;;;;;10.70;2.60;;;16.90;75.20;;;;;;4965697;28;20026;-85
2022/10/17 09:05:18;;;;;;;10.23;3.05;;;16.90;75.10;;;;;;4988550;28;20085;-84
2022/10/17 09:07:55;;;;;;;10.20;3.20;;;16.90;75.00;;;;;;4989912;28;20034;-81
2022/10/17 09:10:55;;;;;;;10.98;3.25;;;17.00;75.00;;;;;;4985233;28;20490;-79
2022/10/17 09:13:21;;;;;;;13.07;3.58;;;17.00;74.90;;;;;;4990814;28;20042;-85
2022/10/17 09:16:08;;;;;;;11.80;2.67;;;17.00;74.80;;;;;;4988512;28;20042;-78
2022/10/17 09:18:41;;;;;;;13.98;3.03;;;17.10;74.70;;;;;;4988445;28;20379;-92
2022/10/17 09:21:24;;;;;;;15.40;2.72;;;17.10;74.70;;;;;;4986867;28;20022;-80
2022/10/17 09:23:58;;;;;;;9.87;2.63;;;17.10;74.50;;;;;;4992394;28;20021;-89
2022/10/17 09:26:25;;;;;;;11.27;2.53;;;17.20;74.60;;;;;;4989139;28;20041;-87
2022/10/17 09:28:58;;;;;;;13.60;2.97;;;17.20;74.60;;;;;;4992315;28;20042;-90
2022/10/17 09:31:31;;;;;;;10.27;2.42;;;17.20;74.50;;;;;;4958709;28;20026;-92
2022/10/17 09:34:00;;;;;;;8.32;2.53;;;17.30;75.10;;;;;;4990140;28;20494;-89
2022/10/17 09:36:29;;;;;;;9.65;1.98;;;17.30;74.40;;;;;;4973445;28;20594;-88
2022/10/17 09:39:14;;;;;;;14.38;2.40;;;17.30;74.40;;;;;;4972553;28;20026;-91
2022/10/17 09:41:41;;;;;;;14.10;2.63;;;17.40;74.50;;;;;;5003240;28;20029;-78
2022/10/17 09:44:40;;;;;;;12.38;2.38;;;17.40;74.20;;;;;;4997304;28;20046;-90
2022/10/17 09:47:25;;;;;;;9.05;2.97;;;17.40;74.00;;;;;;4993179;28;20038;-91
2022/10/17 09:49:52;;;;;;;8.07;2.42;;;17.50;74.00;;;;;;4999583;28;20217;-91
2022/10/17 09:52:27;;;;;;;12.75;2.83;;;17.50;73.80;;;;;;4990094;28;20030;-89
2022/10/17 09:55:31;;;;;;;9.98;3.15;;;17.50;73.70;;;;;;4968526;28;20489;-89
2022/10/17 09:57:58;;;;;;;;;;;17.50;73.40;;;;;;4985123;28;20116;-85
2022/10/17 10:00:27;;;;;;;6.65;2.13;;;17.50;73.40;;;;;;4996266;28;19913;-85
2022/10/17 10:03:18;;;;;;;8.02;2.03;;;17.50;73.40;;;;;;4987090;28;20052;-88
2022/10/17 10:06:01;;;;;;;5.38;1.50;;;17.50;73.20;;;;;;4981119;28;20038;-85
2022/10/17 10:08:30;;;;;;;6.95;1.70;;;17.50;73.10;;;;;;4992469;28;20057;-83
2022/10/17 10:10:59;;;;;;;7.47;1.65;;;17.50;73.00;;;;;;4993824;28;20117;-85
2022/10/17 10:13:26;;;;;;;10.80;2.75;;;17.50;72.90;;;;;;4984673;28;20094;-86
2022/10/17 10:15:53;;;;;;;8.63;1.55;;;17.50;72.80;;;;;;4995425;28;20199;-83
2022/10/17 10:18:34;;;;;;;12.75;3.95;;;17.50;72.60;;;;;;4993087;28;20034;-81
2022/10/17 10:21:26;;;;;;;8.18;2.05;;;17.50;72.40;;;;;;4957284;28;20043;-83
2022/10/17 10:24:26;;;;;;;9.55;2.70;;;17.50;72.20;;;;;;4990215;28;20044;-83
2022/10/17 10:26:55;;;;;;;11.38;3.03;;;17.60;72.30;;;;;;4954299;28;20061;-87
2022/10/17 10:29:51;;;;;;;9.38;3.28;;;17.60;72.20;;;;;;4994271;28;20397;-84
2022/10/17 10:32:30;;;;;;;8.45;2.28;;;17.60;72.00;;;;;;4967531;28;20568;-87
2022/10/17 10:35:17;;;;;;;10.73;2.20;;;17.60;71.90;;;;;;4987619;28;20022;-83
2022/10/17 10:37:48;;;;;;;6.05;2.03;;;17.70;71.90;;;;;;4970574;28;20587;-82
2022/10/17 10:40:36;;;;;;;6.60;1.75;;;17.70;71.70;;;;;;4999883;28;20056;-82
2022/10/17 10:43:03;;;;;;;8.93;1.65;;;17.70;71.60;;;;;;4984553;28;20053;-82
2022/10/17 10:45:35;;;;;;;8.07;2.58;;;17.70;71.50;;;;;;4971145;28;20442;-84
2022/10/17 10:48:17;;;;;;;7.80;1.80;;;17.70;71.40;;;;;;4987619;28;20042;-84
2022/10/17 10:50:48;;;;;;;6.90;1.60;;;17.80;72.00;;;;;;4976174;28;20290;-78
2022/10/17 10:53:24;;;;;;;8.07;2.10;;;17.80;71.30;;;;;;4976095;28;20399;-79
2022/10/17 10:56:01;;;;;;;7.78;2.30;;;17.80;71.20;;;;;;5002322;28;20026;-79
2022/10/17 10:58:41;;;;;;;9.65;2.38;;;17.80;71.00;;;;;;4971547;28;20042;-81
2022/10/17 11:01:31;;;;;;;10.45;1.90;;;17.90;71.00;;;;;;4995054;28;20053;-79
2022/10/17 11:04:37;;;;;;;4.72;1.00;;;17.90;70.70;;;;;;4994791;28;20034;-78
2022/10/17 11:07:18;;;;;;;5.95;1.65;;;18.00;70.60;;;;;;4968922;28;20048;-78
2022/10/17 11:09:57;;;;;;;9.38;2.50;;;18.00;70.40;;;;;;4988628;28;20034;-78
2022/10/17 11:12:29;;;;;;;8.88;2.85;;;18.10;70.30;;;;;;4970553;28;20034;-82
2022/10/17 11:15:00;;;;;;;9.13;1.95;;;18.20;70.30;;;;;;4986578;28;20034;-78
2022/10/17 11:17:37;;;;;;;9.82;1.52;;;18.20;70.00;;;;;;4986341;28;20034;-78
2022/10/17 11:20:24;;;;;;;5.78;2.28;;;18.30;69.90;;;;;;4983841;28;20037;-77
2022/10/17 11:22:59;;;;;;;5.00;2.03;;;18.30;69.70;;;;;;4982578;28;20394;-78
2022/10/17 11:25:39;;;;;;;5.28;1.48;;;18.40;69.70;;;;;;4982390;28;20042;-77
2022/10/17 11:28:14;;;;;;;7.47;2.17;;;18.50;69.50;;;;;;4981172;28;20402;-81
2022/10/17 11:31:03;;;;;;;7.20;1.65;;;18.60;69.40;;;;;;4982271;28;20153;-82
2022/10/17 11:33:53;;;;;;;7.82;1.88;;;18.60;69.20;;;;;;4970758;28;20051;-83
2022/10/17 11:36:23;;;;;;;21.45;3.17;;;18.70;69.10;;;;;;4982875;28;20413;-81
2022/10/17 11:39:04;;;;;;;5.03;1.42;;;18.70;68.90;;;;;;4981575;28;20069;-81
2022/10/17 11:41:49;;;;;;;6.68;2.38;;;18.80;68.90;;;;;;4967632;28;20386;-79
2022/10/17 11:44:24;;;;;;;5.30;1.77;;;18.80;68.70;;;;;;4984355;28;20045;-78
2022/10/17 11:47:06;;;;;;;5.28;1.48;;;18.90;68.70;;;;;;4985544;28;20207;-77
2022/10/17 11:49:39;;;;;;;6.68;1.85;;;19.00;68.60;;;;;;4987880;28;20034;-77
2022/10/17 11:52:42;;;;;;;6.63;1.92;;;19.10;68.60;;;;;;4948871;28;20222;-79
2022/10/17 11:55:20;;;;;;;4.68;1.50;;;19.20;68.30;;;;;;4981640;28;20498;-77
2022/10/17 11:58:15;;;;;;;8.85;1.92;;;19.30;68.30;;;;;;4983136;28;20036;-77
2022/10/17 12:00:53;;;;;;;7.18;1.40;;;19.60;68.30;;;;;;4989188;28;20038;-77
2022/10/17 12:03:50;;;;;;;8.45;1.85;;;19.80;68.20;;;;;;4989954;28;20364;-78
2022/10/17 12:06:36;;;;;;;4.93;1.50;;;20.10;67.90;;;;;;4968315;28;20045;-78
2022/10/17 12:09:22;;;;;;;5.45;1.90;;;20.20;67.80;;;;;;4980692;28;20046;-78
2022/10/17 12:11:57;;;;;;;7.10;1.60;;;20.40;67.60;;;;;;4990835;28;20029;-79
2022/10/17 12:14:32;;;;;;;7.78;1.65;;;20.50;67.10;;;;;;4990462;28;20111;-78
2022/10/17 12:17:00;;;;;;;4.50;1.17;;;20.60;66.80;;;;;;5002347;28;20070;-79
2022/10/17 12:19:31;;;;;;;4.10;1.23;;;20.60;66.70;;;;;;5018179;28;20083;-80
2022/10/17 12:22:24;;;;;;;5.40;1.58;;;20.60;66.60;;;;;;5004027;28;20030;-79
2022/10/17 12:25:02;;;;;;;4.22;1.38;;;20.60;66.30;;;;;;5008664;28;20121;-86
2022/10/17 12:27:27;;;;;;;5.10;1.42;;;20.60;66.40;;;;;;5013051;28;20038;-83
2022/10/17 12:30:05;;;;;;;5.93;1.40;;;20.60;66.40;;;;;;5013511;28;20102;-83
2022/10/17 12:32:32;;;;;;;6.88;2.75;;;20.60;66.10;;;;;;5020542;28;20079;-84
2022/10/17 12:34:58;;;;;;;5.38;1.70;;;20.60;66.10;;;;;;5012256;28;20045;-81
2022/10/17 12:37:43;;;;;;;5.40;1.40;;;20.60;65.90;;;;;;4996593;28;20296;-82
2022/10/17 12:40:34;;;;;;;6.25;1.35;;;20.70;65.70;;;;;;4986727;28;20078;-81
2022/10/17 12:43:02;;;;;;;8.18;1.30;;;20.80;65.60;;;;;;4973860;28;20057;-82
2022/10/17 12:45:51;;;;;;;7.88;2.05;;;20.80;65.50;;;;;;4992232;28;20038;-82
2022/10/17 12:48:35;;;;;;;8.43;1.45;;;20.90;65.10;;;;;;4988969;28;20379;-82
2022/10/17 12:51:16;;;;;;;8.30;1.95;;;20.90;64.90;;;;;;4987870;28;20550;-81
2022/10/17 12:53:49;;;;;;;3.92;1.13;;;21.00;64.90;;;;;;4987386;28;20120;-81
2022/10/17 12:56:19;;;;;;;7.50;1.75;;;21.00;64.90;;;;;;4987454;28;20042;-81
2022/10/17 12:58:48;;;;;;;5.93;1.85;;;21.00;64.70;;;;;;4972585;28;20458;-81
2022/10/17 13:01:26;;;;;;;5.35;1.10;;;21.10;64.60;;;;;;4958667;28;20041;-81
2022/10/17 13:03:54;;;;;;;6.45;1.50;;;21.20;64.40;;;;;;4989736;28;20427;-81
2022/10/17 13:06:31;;;;;;;6.03;1.48;;;21.20;64.20;;;;;;4973630;28;20394;-79
2022/10/17 13:09:01;;;;;;;5.97;1.48;;;21.30;63.90;;;;;;4961963;28;20461;-80
2022/10/17 13:11:30;;;;;;;5.50;1.48;;;21.30;63.80;;;;;;4982738;28;20026;-79
2022/10/17 13:14:00;;;;;;;6.75;1.40;;;21.30;63.80;;;;;;4980730;28;20042;-80
2022/10/17 13:16:31;;;;;;;3.08;1.70;;;21.40;63.80;;;;;;4975364;28;20092;-79